LFQQ

Lille-Lesquin Airport

Airport
ICAO code
LFQQ
IATA Code
LIL
Summary
ICAO Region
EUR
ICAO Territory
Location

, Nord-Pas-de-Calais

Serving
Lille
Elevation
157 ft
Coordinates
50° 33' 43" N , 3° 5' 22" E
Metar
Observation
LFQQ 110430Z AUTO 04003KT CAVOK 18/12 Q1021 NOSIG
Station
Lille
Date/Time
2022-08-11 04:30:00
Wind direction
40°
Wind speed
03 kts
Lowest cloud amount
clouds and visibility OK
Temperature
18°C
Dew point
12°C
Humidity
67%
QNH
1021 hPa
Weather condition
n/a

Runways

Designator Length Width Surface Rops
2/20 1580 30 ASP Yes/Yes
8/26 2825 45 ASP Yes/Yes

Airport map

Aerial View

SKYbrary Partners:

Safety knowledge contributed by: